Ana Sayfa
METAR-TAF:

METAR-TAF

Havaalanları :

Rolla National Airport

Rolla, Missouri, Amerika Birleşik Devletleri

Enlem: 38-07-55N, Boylam: 091-45-55W, yükseklik: 350 m

Güncel hava durumu gözlemi

Rapor saat 02:53 UTC de 38 dakika önce yapıldı.
Rüzgar doğudan 4 kt
Sıcaklık 16°C
Nem 55%
Basınç 1016 hPa
Görüş mesafesi: 16.1 km
Açık gökyüzü

METAR: KVIH 180253Z AUTO 09004KT 10SM CLR 16/07 A2999 RMK AO2 SLP149 T01610067 51015

Saat: 22:31 (03:31 UTC)


TAF: eksik

4.000'den fazla havaalanı için hava durumu gözlemleri ve tahminleri (METAR ve TAF raporları).

Kullanılabilir istasyonlar harita üzerinde sarı ve kırmızı noktalarla gösterilir.

İstasyonun adını görmek için fareyi noktanın üzerinde gezdirin.

Sonrasında hava gözlem ve tahminlerini görmek için tıklayın.

Haritayı değiştirmek için: yaklaştırmak için siyah artı işaretli yeşil düğmeye ve uzaklaştırmak için de eksi işaretli düğmeye hızla tıklayın; bitişik haritalar için yeşil okları kullanın.


METAR-TAF: